createdAt,value
2019-03-19T00:00:33.865Z,88.71
2019-03-19T00:03:40.737Z,89.50
2019-03-19T00:06:47.641Z,89.57
2019-03-19T00:09:54.602Z,88.60
2019-03-19T00:13:01.673Z,88.06
2019-03-19T00:16:08.575Z,88.48
2019-03-19T00:19:22.437Z,89.45
2019-03-19T00:22:28.970Z,88.07
2019-03-19T00:25:35.751Z,87.77
2019-03-19T00:28:42.559Z,86.34
2019-03-19T00:31:49.375Z,87.32
2019-03-19T00:34:56.345Z,90.05
2019-03-19T00:38:04.275Z,88.59
2019-03-19T00:41:11.171Z,88.08
2019-03-19T00:44:18.076Z,88.71
2019-03-19T00:47:27.648Z,86.86
2019-03-19T00:50:34.540Z,86.66
2019-03-19T00:53:41.412Z,85.80
2019-03-19T00:56:48.336Z,86.32
2019-03-19T00:59:56.407Z,86.92
2019-03-19T01:03:03.240Z,87.34
2019-03-19T01:06:10.262Z,87.56
2019-03-19T01:09:17.139Z,87.18
2019-03-19T01:12:24.746Z,87.00
2019-03-19T01:15:31.590Z,87.43
2019-03-19T01:18:40.531Z,87.15
2019-03-19T01:21:50.395Z,88.21
2019-03-19T01:24:58.400Z,87.82
2019-03-19T01:28:05.412Z,86.54
2019-03-19T01:31:12.243Z,86.12
2019-03-19T01:34:19.085Z,86.69
2019-03-19T01:37:28.272Z,85.93
2019-03-19T01:40:35.549Z,86.95
2019-03-19T01:43:42.338Z,87.51
2019-03-19T01:46:49.165Z,88.43
2019-03-19T01:49:56.111Z,88.81
2019-03-19T01:53:02.983Z,88.52
2019-03-19T01:56:09.852Z,88.79
2019-03-19T01:59:16.694Z,88.30
2019-03-19T02:02:24.385Z,88.62
2019-03-19T02:05:32.445Z,87.40
2019-03-19T02:08:39.343Z,88.40
2019-03-19T02:11:46.206Z,88.58
2019-03-19T02:14:53.466Z,88.74
2019-03-19T02:18:00.286Z,87.96
2019-03-19T02:21:07.318Z,87.50
2019-03-19T02:24:14.167Z,88.46
2019-03-19T02:27:23.999Z,88.42
2019-03-19T02:30:31.027Z,88.41
2019-03-19T02:33:37.977Z,87.38
2019-03-19T02:36:44.715Z,86.49
2019-03-19T02:39:51.616Z,86.91
2019-03-19T02:42:58.529Z,87.26
2019-03-19T02:46:05.457Z,87.56
2019-03-19T02:49:12.275Z,86.77
2019-03-19T02:52:19.216Z,86.33
2019-03-19T02:55:26.478Z,85.99
2019-03-19T02:58:33.432Z,86.79
2019-03-19T03:01:40.268Z,86.86
2019-03-19T03:04:48.154Z,86.79
2019-03-19T03:07:54.988Z,87.46
2019-03-19T03:11:01.882Z,89.01
2019-03-19T03:14:08.798Z,91.04
2019-03-19T03:17:16.695Z,90.68
2019-03-19T03:20:23.590Z,89.95
2019-03-19T03:23:30.522Z,91.48
2019-03-19T03:26:47.817Z,91.52
2019-03-19T03:29:46.002Z,91.97
2019-03-19T03:32:52.913Z,91.76
2019-03-19T03:35:59.810Z,91.34
2019-03-19T03:39:09.119Z,91.05
2019-03-19T03:42:16.145Z,92.04
2019-03-19T03:45:24.639Z,91.84
2019-03-19T03:48:31.489Z,92.33
2019-03-19T03:51:38.464Z,91.13
2019-03-19T03:54:45.347Z,90.39
2019-03-19T03:57:52.215Z,88.98
2019-03-19T04:00:59.149Z,88.81
2019-03-19T04:04:06.087Z,87.56
2019-03-19T04:07:13.637Z,89.18
2019-03-19T04:10:20.527Z,88.16
2019-03-19T04:13:27.424Z,92.50
2019-03-19T04:16:55.135Z,92.39
2019-03-19T04:20:07.150Z,90.12
2019-03-19T04:23:24.178Z,90.19
2019-03-19T04:26:32.743Z,91.11
2019-03-19T04:29:41.217Z,88.88
2019-03-19T04:32:51.310Z,89.35
2019-03-19T04:36:02.848Z,91.87
2019-03-19T04:39:10.074Z,91.44
2019-03-19T04:42:16.933Z,90.58
2019-03-19T04:45:25.661Z,91.19
2019-03-19T04:48:32.417Z,89.75
2019-03-19T04:51:39.287Z,92.24
2019-03-19T04:54:48.585Z,90.41
2019-03-19T04:57:55.475Z,91.67
2019-03-19T05:01:02.472Z,90.02
2019-03-19T05:04:09.412Z,90.58
2019-03-19T05:07:17.977Z,90.67
2019-03-19T05:10:25.084Z,91.18
2019-03-19T05:13:31.910Z,91.01
2019-03-19T05:16:38.704Z,90.62
2019-03-19T05:19:45.630Z,91.65
2019-03-19T05:22:52.547Z,91.52
2019-03-19T05:26:00.991Z,90.38
2019-03-19T05:29:09.047Z,90.14
2019-03-19T05:32:16.043Z,89.66
2019-03-19T05:35:22.941Z,88.39
2019-03-19T05:38:30.776Z,88.20
2019-03-19T05:41:37.656Z,89.42
2019-03-19T05:44:44.518Z,88.97
2019-03-19T05:47:51.391Z,88.67
2019-03-19T05:50:58.228Z,88.76
2019-03-19T05:54:05.176Z,89.99
2019-03-19T05:57:13.711Z,90.10
2019-03-19T06:00:21.745Z,89.76
2019-03-19T06:03:28.580Z,89.59
2019-03-19T06:06:35.461Z,90.02
2019-03-19T06:09:43.938Z,88.58
2019-03-19T06:12:50.815Z,88.95
2019-03-19T06:15:57.643Z,88.64
2019-03-19T06:19:04.508Z,88.54
2019-03-19T06:22:11.345Z,86.88
2019-03-19T06:25:19.284Z,86.79
2019-03-19T06:28:26.187Z,87.46
2019-03-19T06:31:34.676Z,87.42
2019-03-19T06:34:41.438Z,86.61
2019-03-19T06:37:48.367Z,87.66
2019-03-19T06:40:55.137Z,87.29
2019-03-19T06:44:02.046Z,86.85
2019-03-19T06:47:14.680Z,87.48
2019-03-19T06:50:21.541Z,86.13
2019-03-19T06:53:28.386Z,85.58
2019-03-19T06:56:35.247Z,86.21
2019-03-19T06:59:42.011Z,86.25
2019-03-19T07:02:50.171Z,84.56
2019-03-19T07:05:57.022Z,84.94
2019-03-19T07:09:04.200Z,84.04
2019-03-19T07:12:13.299Z,84.57
2019-03-19T07:15:20.158Z,83.39
2019-03-19T07:18:27.140Z,83.49
2019-03-19T07:21:33.946Z,83.61
2019-03-19T07:24:40.789Z,84.11
2019-03-19T07:27:47.655Z,83.88
2019-03-19T07:30:56.776Z,83.65
2019-03-19T07:34:03.675Z,83.92
2019-03-19T07:37:11.228Z,83.20
2019-03-19T07:40:18.328Z,83.35
2019-03-19T07:43:25.267Z,83.49
2019-03-19T07:46:32.137Z,82.83
2019-03-19T07:49:39.019Z,82.59
2019-03-19T07:52:45.899Z,82.53
2019-03-19T07:55:53.561Z,82.38
2019-03-19T07:59:00.793Z,82.01
2019-03-19T08:02:07.611Z,81.85
2019-03-19T08:05:14.998Z,82.61
2019-03-19T08:08:21.896Z,81.57
2019-03-19T08:11:28.788Z,81.96
2019-03-19T08:14:38.514Z,81.09
2019-03-19T08:17:45.379Z,79.88
2019-03-19T08:20:52.159Z,79.87
2019-03-19T08:23:59.321Z,79.24
2019-03-19T08:27:06.168Z,78.90
2019-03-19T08:30:16.352Z,79.41
2019-03-19T08:33:24.223Z,78.58
2019-03-19T08:36:31.221Z,77.53
2019-03-19T08:39:40.225Z,77.97
2019-03-19T08:42:47.184Z,78.16
2019-03-19T08:45:54.124Z,77.13
2019-03-19T08:49:04.697Z,77.76
2019-03-19T08:52:13.251Z,77.76
2019-03-19T08:55:20.203Z,77.77
2019-03-19T08:58:27.117Z,76.76
2019-03-19T09:01:34.039Z,76.73
2019-03-19T09:04:41.234Z,77.06
2019-03-19T09:07:48.182Z,76.73
2019-03-19T09:10:56.431Z,77.38
2019-03-19T09:14:03.294Z,76.84
2019-03-19T09:17:10.322Z,76.21
2019-03-19T09:20:17.372Z,75.87
2019-03-19T09:23:24.281Z,75.95
2019-03-19T09:26:31.220Z,75.97
2019-03-19T09:29:38.106Z,75.57
2019-03-19T09:32:45.086Z,73.29
2019-03-19T09:35:51.938Z,75.50
2019-03-19T09:38:58.896Z,75.34
2019-03-19T09:42:06.269Z,75.51
2019-03-19T09:45:15.143Z,75.09
2019-03-19T09:48:21.987Z,75.68
2019-03-19T09:51:28.869Z,74.85
2019-03-19T09:54:35.714Z,74.67
2019-03-19T09:57:42.600Z,72.62
2019-03-19T10:00:49.480Z,71.06
2019-03-19T10:03:56.341Z,72.49
2019-03-19T10:07:06.334Z,72.36
2019-03-19T10:10:13.600Z,72.79
2019-03-19T10:13:21.358Z,71.66
2019-03-19T10:16:28.244Z,69.92
2019-03-19T10:19:36.278Z,69.09
2019-03-19T10:22:43.133Z,66.96
2019-03-19T10:25:51.182Z,67.30
2019-03-19T10:28:59.457Z,67.72
2019-03-19T10:32:06.332Z,68.79
2019-03-19T10:35:14.700Z,70.10
2019-03-19T10:38:26.681Z,70.44
2019-03-19T10:41:34.533Z,69.92
2019-03-19T10:44:41.400Z,67.45
2019-03-19T10:47:48.294Z,68.59
2019-03-19T10:50:55.253Z,66.49
2019-03-19T10:54:02.292Z,66.05
2019-03-19T10:57:09.136Z,62.92
2019-03-19T11:00:22.837Z,63.95
2019-03-19T11:03:29.712Z,64.26
2019-03-19T11:06:36.825Z,63.38
2019-03-19T11:09:43.745Z,60.06
2019-03-19T11:12:51.872Z,59.00
2019-03-19T11:16:00.107Z,57.82
2019-03-19T11:19:08.792Z,58.62
2019-03-19T11:22:17.848Z,56.92
2019-03-19T11:25:26.425Z,54.63
2019-03-19T11:28:33.395Z,54.82
2019-03-19T11:31:40.272Z,56.78
2019-03-19T11:34:47.211Z,56.65
2019-03-19T11:37:54.091Z,55.63
2019-03-19T11:41:01.086Z,56.60
2019-03-19T11:44:08.051Z,53.61
2019-03-19T11:47:16.608Z,53.26
2019-03-19T11:50:24.017Z,51.33
2019-03-19T11:53:30.803Z,53.14
2019-03-19T11:56:37.778Z,52.29
2019-03-19T11:59:44.743Z,54.05
2019-03-19T12:02:51.615Z,55.47
2019-03-19T12:05:58.518Z,58.12
2019-03-19T12:09:07.259Z,60.30
2019-03-19T12:12:14.036Z,60.08
2019-03-19T12:15:20.947Z,61.11
2019-03-19T12:18:27.865Z,62.05
2019-03-19T12:21:35.942Z,62.33
2019-03-19T12:24:44.227Z,65.28
2019-03-19T12:27:51.157Z,65.63
2019-03-19T12:30:58.023Z,65.17
2019-03-19T12:34:04.973Z,63.62
2019-03-19T12:37:11.801Z,63.76
2019-03-19T12:40:20.223Z,62.13
2019-03-19T12:43:27.547Z,63.24
2019-03-19T12:46:34.458Z,66.17
2019-03-19T12:49:43.690Z,66.80
2019-03-19T12:52:51.499Z,66.70
2019-03-19T12:55:59.237Z,66.83
2019-03-19T12:59:07.272Z,66.91
2019-03-19T13:02:14.178Z,64.63
2019-03-19T13:05:22.593Z,64.10
2019-03-19T13:08:29.776Z,62.89
2019-03-19T13:11:36.663Z,58.24
2019-03-19T13:14:43.511Z,60.64
2019-03-19T13:17:50.378Z,59.18
2019-03-19T13:20:57.190Z,58.95
2019-03-19T13:24:04.067Z,59.85
2019-03-19T13:27:11.763Z,59.35
2019-03-19T13:30:19.947Z,58.95
2019-03-19T13:33:26.871Z,58.45
2019-03-19T13:36:33.844Z,56.62
2019-03-19T13:39:40.797Z,59.12
2019-03-19T13:42:47.662Z,58.07
2019-03-19T13:45:54.609Z,58.83
2019-03-19T13:49:01.643Z,55.83
2019-03-19T13:52:08.472Z,57.34
2019-03-19T13:55:15.964Z,57.25
2019-03-19T13:58:23.694Z,59.14
2019-03-19T14:01:30.678Z,58.44
2019-03-19T14:04:38.575Z,57.41
2019-03-19T14:07:47.945Z,59.79
2019-03-19T14:10:55.171Z,59.07
2019-03-19T14:14:02.113Z,58.67
2019-03-19T14:17:11.822Z,57.81
2019-03-19T14:20:18.719Z,58.96
2019-03-19T14:23:25.744Z,58.57
2019-03-19T14:26:32.634Z,58.20
2019-03-19T14:29:39.744Z,58.32
2019-03-19T14:32:47.927Z,59.22
2019-03-19T14:35:54.854Z,59.48
2019-03-19T14:39:01.758Z,59.80
2019-03-19T14:42:10.166Z,59.80
2019-03-19T14:45:17.225Z,62.07
2019-03-19T14:48:24.205Z,63.91
2019-03-19T14:51:31.936Z,65.10
2019-03-19T14:54:38.846Z,66.41
2019-03-19T14:57:45.750Z,65.65
2019-03-19T15:00:52.599Z,66.39
2019-03-19T15:03:59.607Z,65.45
2019-03-19T15:07:09.960Z,65.07
2019-03-19T15:10:17.295Z,65.19
2019-03-19T15:13:24.248Z,64.96
2019-03-19T15:16:31.194Z,67.21
2019-03-19T15:19:38.053Z,67.22
2019-03-19T15:22:44.947Z,68.32
2019-03-19T15:25:51.948Z,68.43
2019-03-19T15:28:58.977Z,67.23
2019-03-19T15:32:06.296Z,64.65
2019-03-19T15:35:13.451Z,65.32
2019-03-19T15:38:20.358Z,64.09
2019-03-19T15:41:27.328Z,62.29
2019-03-19T15:44:34.113Z,62.25
2019-03-19T15:47:41.113Z,62.11
2019-03-19T15:50:49.075Z,61.34
2019-03-19T15:53:55.891Z,61.23
2019-03-19T15:57:03.312Z,59.96
2019-03-19T16:00:13.879Z,60.85
2019-03-19T16:03:21.829Z,59.82
2019-03-19T16:06:28.790Z,57.87
2019-03-19T16:09:35.627Z,57.32
2019-03-19T16:12:42.716Z,56.79
2019-03-19T16:15:50.616Z,57.41
2019-03-19T16:18:57.733Z,57.10
2019-03-19T16:22:04.610Z,55.19
2019-03-19T16:25:11.671Z,54.55
2019-03-19T16:28:18.682Z,55.05
2019-03-19T16:31:25.637Z,56.37
2019-03-19T16:34:32.940Z,55.07
2019-03-19T16:37:41.757Z,56.02
2019-03-19T16:40:53.026Z,55.40
2019-03-19T16:44:00.159Z,54.84
2019-03-19T16:47:07.091Z,55.27
2019-03-19T16:50:16.124Z,56.11
2019-03-19T16:53:22.978Z,56.31
2019-03-19T16:56:31.006Z,56.92
2019-03-19T16:59:38.109Z,56.92
2019-03-19T17:02:46.025Z,57.60
2019-03-19T17:05:53.108Z,59.00
2019-03-19T17:08:59.992Z,58.38
2019-03-19T17:12:09.349Z,58.50
2019-03-19T17:15:16.533Z,59.07
2019-03-19T17:18:24.368Z,59.62
2019-03-19T17:21:31.350Z,59.91
2019-03-19T17:24:38.217Z,60.32
2019-03-19T17:27:45.123Z,59.98
2019-03-19T17:30:52.441Z,60.00
2019-03-19T17:33:59.410Z,59.32
2019-03-19T17:37:06.665Z,60.21
2019-03-19T17:40:13.944Z,60.62
2019-03-19T17:43:21.845Z,60.59
2019-03-19T17:46:28.921Z,61.16
2019-03-19T17:49:35.803Z,61.10
2019-03-19T17:52:45.846Z,61.44
2019-03-19T17:55:52.847Z,62.08
2019-03-19T17:58:59.766Z,61.79
2019-03-19T18:02:09.952Z,62.52
2019-03-19T18:05:16.962Z,62.37
2019-03-19T18:08:23.849Z,61.77
2019-03-19T18:11:30.960Z,61.79
2019-03-19T18:14:38.954Z,61.28
2019-03-19T18:17:45.961Z,62.60
2019-03-19T18:20:52.822Z,64.08
2019-03-19T18:24:02.943Z,65.92
2019-03-19T18:27:09.844Z,69.62
2019-03-19T18:30:17.145Z,69.12
2019-03-19T18:33:24.186Z,67.77
2019-03-19T18:36:31.092Z,69.17
2019-03-19T18:39:38.425Z,72.43
2019-03-19T18:42:45.298Z,72.15
2019-03-19T18:45:57.080Z,71.24
2019-03-19T18:49:04.395Z,70.62
2019-03-19T18:52:12.055Z,69.67
2019-03-19T18:55:21.245Z,71.17
2019-03-19T18:58:28.886Z,70.52
2019-03-19T19:01:36.931Z,70.80
2019-03-19T19:04:46.485Z,70.31
2019-03-19T19:07:53.445Z,73.01
2019-03-19T19:11:01.112Z,72.97
2019-03-19T19:14:09.661Z,71.41
2019-03-19T19:17:17.778Z,72.93
2019-03-19T19:20:26.115Z,73.84
2019-03-19T19:23:36.881Z,76.15
2019-03-19T19:26:44.991Z,75.79
2019-03-19T19:29:53.145Z,74.90
2019-03-19T19:33:02.509Z,74.98
2019-03-19T19:36:10.888Z,75.71
2019-03-19T19:39:19.545Z,76.41
2019-03-19T19:42:28.815Z,75.25
2019-03-19T19:45:36.921Z,76.31
2019-03-19T19:48:45.168Z,77.92
2019-03-19T19:51:53.596Z,76.83
2019-03-19T19:55:01.866Z,75.74
2019-03-19T19:58:10.142Z,76.22
2019-03-19T20:01:18.167Z,75.93
2019-03-19T20:04:26.489Z,75.36
2019-03-19T20:07:34.575Z,77.09
2019-03-19T20:10:42.467Z,75.38
2019-03-19T20:13:50.254Z,74.61
2019-03-19T20:16:58.431Z,72.37
2019-03-19T20:20:07.998Z,70.93
2019-03-19T20:23:15.890Z,71.33
2019-03-19T20:26:24.585Z,74.93
2019-03-19T20:29:33.514Z,76.09
2019-03-19T20:32:41.591Z,76.32
2019-03-19T20:35:49.940Z,76.66
2019-03-19T20:39:01.520Z,76.47
2019-03-19T20:42:11.469Z,75.49
2019-03-19T20:45:23.040Z,76.10
2019-03-19T20:48:31.437Z,76.14
2019-03-19T20:51:39.513Z,75.38
2019-03-19T20:54:47.566Z,77.70
2019-03-19T20:57:55.446Z,79.80
2019-03-19T21:01:09.425Z,78.77
2019-03-19T21:04:20.445Z,78.15
2019-03-19T21:07:28.638Z,80.03
2019-03-19T21:10:36.498Z,83.30
2019-03-19T21:13:44.244Z,81.18
2019-03-19T21:16:52.197Z,79.98
2019-03-19T21:20:00.346Z,79.06
2019-03-19T21:23:08.421Z,80.52
2019-03-19T21:26:18.508Z,80.54
2019-03-19T21:29:26.639Z,80.38
2019-03-19T21:32:34.741Z,83.12
2019-03-19T21:35:42.758Z,82.59
2019-03-19T21:38:50.738Z,81.89
2019-03-19T21:42:03.567Z,81.61
2019-03-19T21:45:12.652Z,82.19
2019-03-19T21:48:22.288Z,82.74
2019-03-19T21:51:30.575Z,82.15
2019-03-19T21:54:41.402Z,81.70
2019-03-19T21:57:49.634Z,81.24
2019-03-19T22:00:57.472Z,80.88
2019-03-19T22:04:06.956Z,81.99
2019-03-19T22:07:14.871Z,83.20
2019-03-19T22:10:23.648Z,83.56
2019-03-19T22:13:34.048Z,83.19
2019-03-19T22:16:42.069Z,86.26
2019-03-19T22:19:52.442Z,83.75
2019-03-19T22:23:00.676Z,84.85
2019-03-19T22:26:09.110Z,84.29
2019-03-19T22:29:17.476Z,84.04
2019-03-19T22:32:25.379Z,83.38
2019-03-19T22:35:35.211Z,82.49
2019-03-19T22:38:43.167Z,83.92
2019-03-19T22:41:51.855Z,84.10
2019-03-19T22:45:00.160Z,83.80
2019-03-19T22:48:10.744Z,82.79
2019-03-19T22:51:19.281Z,82.84
2019-03-19T22:54:27.190Z,86.64
2019-03-19T22:57:35.433Z,87.06
2019-03-19T23:00:45.380Z,85.36
2019-03-19T23:03:58.586Z,84.61
2019-03-19T23:07:07.022Z,85.66
2019-03-19T23:10:16.444Z,85.21
2019-03-19T23:13:26.128Z,86.53
2019-03-19T23:16:33.917Z,84.81
2019-03-19T23:19:42.073Z,83.62
2019-03-19T23:22:49.962Z,84.29
2019-03-19T23:25:57.988Z,84.91
2019-03-19T23:29:05.814Z,84.00
2019-03-19T23:32:13.958Z,85.99
2019-03-19T23:35:21.975Z,84.92
2019-03-19T23:38:30.386Z,85.96
2019-03-19T23:41:38.366Z,86.14
2019-03-19T23:44:46.677Z,84.63
2019-03-19T23:48:01.236Z,84.22
2019-03-19T23:51:09.479Z,84.59
2019-03-19T23:54:17.675Z,83.67
2019-03-19T23:57:25.768Z,83.57
